Wallingford, IA

12:26 AM CST on February 07, 2016 (GMT -0600)
Estherville Municipal | | Change Station
CLOSE
Current Station
Airport
Location: Estherville,
Elevation: 1316 ft
Nearby Weather Stations
Active Advisory: Blizzard Watch

Elev 1316 ft 43.40 °N, 94.75 °W | Updated 34 minutes ago

Overcast
Overcast
32 °F
Feels Like 22 °F
N
15
Wind Variable Wind from SW

Today
High -- | Low -- °F
--% Chance of Precip.
Yesterday
High -- | Low -- °F
Precip. -- in
Pressure 29.83 in
Visibility 10.0 miles
Clouds Overcast 9500 ft
Windchill 22 °F
Dew Point 27 °F
Humidity 82%
Rainfall 0.00 in
Snow Depth Not available.
7:28 AM 5:38 PM
Waning Crescent, 2% visible
METAR KEST 070552Z AUTO 22013KT 10SM OVC095 00/M03 A2978 RMK AO2 SLP099 T00001028 10006 21006 400111056 58019 $
Pressure 29.83 in
Visibility 10.0 miles
Clouds Overcast 9500 ft
Windchill 22 °F
Dew Point 27 °F
Humidity 82%
Rainfall 0.00 in
Snow Depth Not available.
7:28 AM 5:38 PM
Waning Crescent, 2% visible
METAR KEST 070552Z AUTO 22013KT 10SM OVC095 00/M03 A2978 RMK AO2 SLP099 T00001028 10006 21006 400111056 58019 $

10-Day Weather Forecast

Almanac

Astronomy

Feb. 07, 2016 Rise Set
Actual Time
Civil Twilight
Nautical Twilight
Astronomical Twilight
Moon
Length of Visible Light
Length of Day
Tomorrow will be .
, % of the Moon is Illuminated

Today's Extremes

State Highs State Lows

Community

WunderPhotos

Upload Photos

1,891,175 photos uploaded!

WunderBlog® & News

Nearby

Air Quality

  Air Quality AQ Index Pollutant
Not available.

Snow Depth

Station Depth Elevation

Earthquake Activity

City Distance Mag. Time & Date
Minimum magnitude displayed is 2.5.

Coastal Water Temperatures

Place Temperature

Stations

Nearby Weather Stations

Station Location Temp. Windchill Dew Point Humidity Wind Precip. Elev Updated Type
                   

Watches & Warnings

Blizzard Watch
Issued: 9:56 PM CST Feb. 6, 2016 – National Weather Service

... Blizzard watch remains in effect from Sunday afternoon through
Monday afternoon...

* timing... late Sunday afternoon through Monday afternoon.

* Storm total snow accumulations... up to 2 inches with locally
higher amounts.

* Winds/visibility... northwest wind 30 to 40 mph with gusts to
near 50 mph. Visibilities may drop below one quarter mile for an
extended period with near whiteout conditions possible at times.

* Impacts... considerable blowing and drifting snow can create
treacherous travel conditions and even lead to nearly
impossible travel in some areas.

Precautionary/preparedness actions...
a blizzard watch means there is a potential for falling and/or
blowing snow with strong winds and extremely poor visibilities.
This can lead to whiteout conditions and make travel very
dangerous.



Fab